Terminal Aerodrome Forecast
Issued by NWS Dallas/Fort Worth, TX

Home | Current Version | Previous Version | Text Only | Print | Product List | Glossary On
Versions: 1 2 3 4 5 6 7 8 9 10 11 12 13 14 15 16 17 18 19 20 21 22 23 24 25 26 27 28 29 30 31 32
000
FTUS44 KFWD 201100
TAFDFW
TAF
KDFW 201135Z 2012/2118 13005KT P6SM SCT025
      TEMPO 2012/2013 BKN022
     FM201300 13006KT P6SM BKN020
     FM201800 14009KT P6SM SCT040
     FM210100 VRB03KT P6SM FEW100
     FM211600 04006KT P6SM SCT100 BKN250=

USA.gov is the U.S. government's official web portal to all federal, state and local government web resources and services.